createdAt,value
2022-08-25T00:00:26.646Z,30.60
2022-08-25T00:02:57.679Z,30.40
2022-08-25T00:05:29.327Z,30.40
2022-08-25T00:07:58.843Z,30.50
2022-08-25T00:10:26.907Z,30.50
2022-08-25T00:12:56.424Z,30.60
2022-08-25T00:15:25.986Z,30.60
2022-08-25T00:17:54.020Z,30.60
2022-08-25T00:20:22.507Z,30.60
2022-08-25T00:22:50.651Z,30.60
2022-08-25T00:25:18.986Z,30.70
2022-08-25T00:27:47.552Z,30.70
2022-08-25T00:30:16.838Z,30.70
2022-08-25T00:32:55.486Z,30.60
2022-08-25T00:35:26.237Z,30.60
2022-08-25T00:37:54.881Z,30.70
2022-08-25T00:40:24.410Z,30.60
2022-08-25T00:42:52.477Z,30.60
2022-08-25T00:45:20.496Z,30.60
2022-08-25T00:47:49.934Z,30.60
2022-08-25T00:50:18.369Z,30.60
2022-08-25T00:52:47.579Z,30.60
2022-08-25T00:55:17.054Z,30.60
2022-08-25T00:57:47.372Z,30.50
2022-08-25T01:00:17.309Z,30.40
2022-08-25T01:02:45.410Z,30.40
2022-08-25T01:05:14.836Z,30.40
2022-08-25T01:07:43.600Z,30.40
2022-08-25T01:10:13.476Z,30.40
2022-08-25T01:12:41.541Z,30.40
2022-08-25T01:15:10.808Z,30.40
2022-08-25T01:17:46.507Z,30.40
2022-08-25T01:20:16.005Z,30.40
2022-08-25T01:22:45.987Z,30.40
2022-08-25T01:25:24.426Z,30.40
2022-08-25T01:27:52.461Z,30.40
2022-08-25T01:30:21.021Z,30.40
2022-08-25T01:32:49.257Z,30.30
2022-08-25T01:35:17.478Z,30.30
2022-08-25T01:37:47.654Z,30.30
2022-08-25T01:40:15.821Z,30.30
2022-08-25T01:42:48.183Z,30.30
2022-08-25T01:45:16.528Z,30.30
2022-08-25T01:47:44.533Z,30.30
2022-08-25T01:50:13.300Z,30.20
2022-08-25T01:52:48.076Z,30.20
2022-08-25T01:55:16.132Z,30.10
2022-08-25T01:57:44.145Z,30.10
2022-08-25T02:00:14.303Z,30.10
2022-08-25T02:02:42.491Z,29.90
2022-08-25T02:05:11.176Z,30.00
2022-08-25T02:07:39.305Z,30.00
2022-08-25T02:10:09.327Z,29.90
2022-08-25T02:12:37.384Z,29.90
2022-08-25T02:15:05.612Z,29.90
2022-08-25T02:17:33.569Z,29.80
2022-08-25T02:20:01.595Z,29.80
2022-08-25T02:22:29.659Z,29.80
2022-08-25T02:24:57.665Z,29.80
2022-08-25T02:27:27.064Z,29.80
2022-08-25T02:29:55.114Z,29.80
2022-08-25T02:32:23.090Z,29.80
2022-08-25T02:34:51.131Z,29.70
2022-08-25T02:37:19.137Z,29.70
2022-08-25T02:39:47.974Z,29.60
2022-08-25T02:42:16.124Z,29.60
2022-08-25T02:44:45.520Z,29.60
2022-08-25T02:47:13.526Z,29.60
2022-08-25T02:49:41.552Z,29.50
2022-08-25T02:52:10.083Z,29.50
2022-08-25T02:54:38.103Z,29.50
2022-08-25T02:57:06.291Z,29.50
2022-08-25T02:59:35.948Z,29.50
2022-08-25T03:02:05.494Z,29.50
2022-08-25T03:04:33.563Z,29.50
2022-08-25T03:07:01.605Z,29.50
2022-08-25T03:09:29.779Z,29.50
2022-08-25T03:12:02.309Z,29.40
2022-08-25T03:14:30.440Z,29.50
2022-08-25T03:16:58.477Z,29.50
2022-08-25T03:19:27.892Z,29.40
2022-08-25T03:21:57.014Z,29.40
2022-08-25T03:24:25.083Z,29.40
2022-08-25T03:26:55.169Z,29.40
2022-08-25T03:29:23.736Z,29.40
2022-08-25T03:31:51.897Z,29.40
2022-08-25T03:34:20.388Z,29.40
2022-08-25T03:36:51.349Z,29.30
2022-08-25T03:39:20.288Z,29.30
2022-08-25T03:41:48.365Z,29.30
2022-08-25T03:44:16.618Z,29.30
2022-08-25T03:46:46.516Z,29.10
2022-08-25T03:49:16.907Z,29.30
2022-08-25T03:51:47.000Z,29.50
2022-08-25T03:54:16.681Z,29.30
2022-08-25T03:56:44.706Z,29.30
2022-08-25T03:59:12.912Z,29.30
2022-08-25T04:01:41.745Z,29.30
2022-08-25T04:04:10.263Z,29.40
2022-08-25T04:06:39.187Z,29.40
2022-08-25T04:09:07.279Z,29.40
2022-08-25T04:11:36.695Z,29.30
2022-08-25T04:14:05.903Z,29.40
2022-08-25T04:16:35.238Z,29.40
2022-08-25T04:19:05.925Z,29.40
2022-08-25T04:21:33.888Z,29.30
2022-08-25T04:26:32.247Z,29.30
2022-08-25T04:29:02.985Z,29.30
2022-08-25T04:31:31.415Z,29.30
2022-08-25T04:33:59.804Z,29.30
2022-08-25T04:36:27.863Z,29.30
2022-08-25T04:38:56.893Z,29.30
2022-08-25T04:41:25.500Z,29.30
2022-08-25T04:43:53.652Z,29.40
2022-08-25T04:46:24.642Z,29.40
2022-08-25T04:48:53.827Z,29.40
2022-08-25T04:51:23.799Z,29.40
2022-08-25T04:53:51.867Z,29.40
2022-08-25T04:58:49.673Z,29.30
2022-08-25T05:01:18.680Z,29.40
2022-08-25T05:03:48.871Z,29.30
2022-08-25T05:06:16.932Z,29.30
2022-08-25T05:08:45.881Z,29.40
2022-08-25T05:11:16.576Z,29.40
2022-08-25T05:13:51.110Z,29.40
2022-08-25T05:16:19.964Z,29.40
2022-08-25T05:18:49.535Z,29.40
2022-08-25T05:21:18.723Z,29.50
2022-08-25T05:23:47.581Z,29.50
2022-08-25T05:26:19.745Z,29.50
2022-08-25T05:28:48.790Z,29.50
2022-08-25T05:31:16.940Z,29.50
2022-08-25T05:33:45.223Z,29.50
2022-08-25T05:36:15.009Z,29.60
2022-08-25T05:38:43.225Z,29.60
2022-08-25T05:41:13.007Z,29.50
2022-08-25T05:43:41.791Z,29.60
2022-08-25T05:46:09.904Z,29.60
2022-08-25T05:48:38.044Z,29.60
2022-08-25T05:51:07.981Z,29.60
2022-08-25T05:53:37.994Z,29.60
2022-08-25T05:56:06.293Z,29.60
2022-08-25T05:58:34.579Z,29.60
2022-08-25T06:01:23.131Z,29.60
2022-08-25T06:03:50.984Z,29.60
2022-08-25T06:06:19.075Z,29.60
2022-08-25T06:08:48.516Z,29.60
2022-08-25T06:11:16.995Z,29.60
2022-08-25T06:13:45.637Z,29.60
2022-08-25T06:16:13.762Z,29.60
2022-08-25T06:18:41.810Z,29.60
2022-08-25T06:21:12.722Z,29.60
2022-08-25T06:23:40.776Z,29.60
2022-08-25T06:26:20.636Z,29.60
2022-08-25T06:28:49.572Z,29.60
2022-08-25T06:31:17.683Z,29.60
2022-08-25T06:33:45.720Z,29.70
2022-08-25T06:36:13.822Z,29.60
2022-08-25T06:38:41.810Z,29.70
2022-08-25T06:41:12.574Z,29.70
2022-08-25T06:43:48.120Z,29.60
2022-08-25T06:46:17.180Z,29.70
2022-08-25T06:48:45.349Z,29.70
2022-08-25T06:51:15.796Z,29.60
2022-08-25T06:53:43.939Z,29.60
2022-08-25T06:56:13.340Z,29.60
2022-08-25T06:58:41.358Z,29.60
2022-08-25T07:01:14.962Z,29.60
2022-08-25T07:03:47.736Z,29.60
2022-08-25T07:06:17.239Z,29.70
2022-08-25T07:08:46.702Z,29.70
2022-08-25T07:11:17.346Z,29.80
2022-08-25T07:13:45.618Z,29.70
2022-08-25T07:16:15.461Z,29.80
2022-08-25T07:18:44.186Z,29.80
2022-08-25T07:21:12.704Z,29.80
2022-08-25T07:23:40.906Z,29.80
2022-08-25T07:26:21.553Z,29.80
2022-08-25T07:29:00.245Z,29.80
2022-08-25T07:31:29.713Z,29.80
2022-08-25T07:34:15.295Z,29.80
2022-08-25T07:36:44.492Z,29.80
2022-08-25T07:39:12.901Z,29.80
2022-08-25T07:41:43.208Z,29.80
2022-08-25T07:44:13.129Z,29.90
2022-08-25T07:46:41.182Z,29.80
2022-08-25T07:49:16.654Z,29.90
2022-08-25T07:52:04.032Z,29.90
2022-08-25T07:54:34.084Z,30.00
2022-08-25T07:57:05.123Z,30.00
2022-08-25T07:59:39.460Z,30.10
2022-08-25T08:02:12.528Z,30.10
2022-08-25T08:04:48.466Z,30.20
2022-08-25T08:07:18.121Z,30.20
2022-08-25T08:09:46.126Z,30.20
2022-08-25T08:12:14.290Z,30.20
2022-08-25T08:14:44.822Z,30.30
2022-08-25T08:17:14.124Z,30.30
2022-08-25T08:19:45.328Z,30.30
2022-08-25T08:22:15.549Z,30.30
2022-08-25T08:24:54.676Z,30.40
2022-08-25T08:27:24.471Z,30.40
2022-08-25T08:29:54.751Z,30.40
2022-08-25T08:32:25.173Z,30.40
2022-08-25T08:35:02.137Z,30.40
2022-08-25T08:37:30.155Z,30.40
2022-08-25T08:40:03.220Z,30.50
2022-08-25T08:42:52.808Z,30.50
2022-08-25T08:45:28.364Z,30.40
2022-08-25T08:48:07.519Z,30.50
2022-08-25T08:50:40.942Z,30.50
2022-08-25T08:53:11.693Z,30.50
2022-08-25T08:55:41.722Z,30.60
2022-08-25T08:58:13.249Z,30.60
2022-08-25T09:00:52.310Z,30.60
2022-08-25T09:03:28.829Z,30.60
2022-08-25T09:05:58.180Z,30.70
2022-08-25T09:08:26.636Z,30.70
2022-08-25T09:11:02.323Z,30.70
2022-08-25T09:13:37.797Z,30.70
2022-08-25T09:16:33.924Z,30.80
2022-08-25T09:19:09.700Z,30.80
2022-08-25T09:21:40.425Z,30.80
2022-08-25T09:24:25.116Z,30.70
2022-08-25T09:26:58.917Z,30.80
2022-08-25T09:29:30.180Z,30.80
2022-08-25T09:31:59.850Z,30.90
2022-08-25T09:34:33.814Z,30.90
2022-08-25T09:37:02.350Z,30.90
2022-08-25T09:39:30.932Z,30.90
2022-08-25T09:42:00.333Z,30.90
2022-08-25T09:44:34.383Z,30.90
2022-08-25T09:47:08.167Z,30.90
2022-08-25T09:49:40.821Z,30.90
2022-08-25T09:52:32.562Z,30.90
2022-08-25T09:55:02.400Z,30.90
2022-08-25T09:57:32.906Z,30.90
2022-08-25T10:00:19.796Z,30.90
2022-08-25T10:03:05.951Z,31.00
2022-08-25T10:05:36.581Z,31.10
2022-08-25T10:08:11.654Z,31.10
2022-08-25T10:10:46.052Z,31.10
2022-08-25T10:13:15.237Z,31.20
2022-08-25T10:15:43.411Z,31.20
2022-08-25T10:18:25.911Z,31.30
2022-08-25T10:21:04.711Z,31.20
2022-08-25T10:23:37.656Z,31.30
2022-08-25T10:26:10.177Z,31.20
2022-08-25T10:28:43.806Z,31.30
2022-08-25T10:31:16.743Z,31.30
2022-08-25T10:33:53.499Z,31.30
2022-08-25T10:36:23.017Z,31.30
2022-08-25T10:38:53.208Z,31.40
2022-08-25T10:41:29.488Z,31.40
2022-08-25T10:44:02.771Z,31.50
2022-08-25T10:46:33.477Z,31.50
2022-08-25T10:49:05.528Z,31.50
2022-08-25T10:51:40.129Z,31.50
2022-08-25T10:54:13.343Z,31.60
2022-08-25T10:56:43.183Z,31.60
2022-08-25T10:59:17.825Z,31.60
2022-08-25T11:02:01.759Z,31.70
2022-08-25T11:04:33.564Z,31.60
2022-08-25T11:07:05.943Z,31.70
2022-08-25T11:09:38.734Z,31.70
2022-08-25T11:12:10.672Z,31.80
2022-08-25T11:14:40.307Z,31.80
2022-08-25T11:17:11.921Z,31.80
2022-08-25T11:19:42.460Z,31.90
2022-08-25T11:22:16.636Z,31.90
2022-08-25T11:25:03.993Z,31.80
2022-08-25T11:27:34.492Z,31.80
2022-08-25T11:30:06.987Z,31.90
2022-08-25T11:32:35.681Z,31.90
2022-08-25T11:35:07.319Z,31.80
2022-08-25T11:37:35.369Z,31.90
2022-08-25T11:40:20.365Z,31.90
2022-08-25T11:42:58.899Z,31.90
2022-08-25T11:45:47.578Z,31.90
2022-08-25T11:48:29.158Z,31.90
2022-08-25T11:51:01.397Z,32.00
2022-08-25T11:53:30.744Z,32.00
2022-08-25T11:56:02.760Z,32.10
2022-08-25T11:58:35.298Z,32.10
2022-08-25T12:01:03.799Z,32.10
2022-08-25T12:04:13.400Z,32.20
2022-08-25T12:07:17.543Z,32.20
2022-08-25T12:10:20.922Z,32.20
2022-08-25T12:13:25.273Z,32.30
2022-08-25T12:15:58.888Z,32.30
2022-08-25T12:18:45.496Z,32.30
2022-08-25T12:21:15.616Z,32.30
2022-08-25T12:23:46.240Z,32.30
2022-08-25T12:26:24.834Z,32.40
2022-08-25T12:29:02.291Z,32.40
2022-08-25T12:31:51.493Z,32.50
2022-08-25T12:34:39.893Z,32.50
2022-08-25T12:37:13.431Z,32.50
2022-08-25T12:39:47.113Z,32.50
2022-08-25T12:42:26.116Z,32.60
2022-08-25T12:45:11.833Z,32.70
2022-08-25T12:47:43.018Z,32.60
2022-08-25T12:50:36.341Z,32.70
2022-08-25T12:53:15.469Z,32.70
2022-08-25T12:55:47.650Z,32.70
2022-08-25T12:58:18.095Z,32.70
2022-08-25T13:01:09.288Z,32.80
2022-08-25T13:04:09.183Z,32.80
2022-08-25T13:06:55.872Z,32.90
2022-08-25T13:10:00.177Z,32.90
2022-08-25T13:12:30.966Z,32.90
2022-08-25T13:15:01.164Z,33.00
2022-08-25T13:17:34.936Z,32.90
2022-08-25T13:20:14.269Z,33.00
2022-08-25T13:22:42.334Z,33.10
2022-08-25T13:25:22.991Z,33.00
2022-08-25T13:27:54.762Z,33.00
2022-08-25T13:30:30.558Z,33.10
2022-08-25T13:32:58.881Z,33.10
2022-08-25T13:35:32.068Z,33.10
2022-08-25T13:38:12.955Z,33.10
2022-08-25T13:40:41.038Z,33.10
2022-08-25T13:43:12.897Z,33.10
2022-08-25T13:45:43.414Z,33.10
2022-08-25T13:48:22.529Z,33.10
2022-08-25T13:50:54.102Z,33.10
2022-08-25T13:53:23.959Z,33.10
2022-08-25T13:55:53.390Z,33.10
2022-08-25T13:58:24.214Z,33.10
2022-08-25T14:01:22.733Z,33.10
2022-08-25T14:03:55.842Z,33.10
2022-08-25T14:06:29.317Z,33.20
2022-08-25T14:09:09.312Z,33.20
2022-08-25T14:11:43.563Z,33.20
2022-08-25T14:14:13.150Z,33.30
2022-08-25T14:16:49.149Z,33.30
2022-08-25T14:19:20.249Z,33.30
2022-08-25T14:21:49.619Z,33.30
2022-08-25T14:24:22.587Z,33.30
2022-08-25T14:26:53.852Z,33.40
2022-08-25T14:29:22.334Z,33.40
2022-08-25T14:31:52.550Z,33.40
2022-08-25T14:36:51.379Z,33.30
2022-08-25T14:39:19.688Z,33.30
2022-08-25T14:41:52.609Z,33.40
2022-08-25T14:44:22.014Z,33.40
2022-08-25T14:46:55.856Z,33.40
2022-08-25T14:49:27.122Z,33.30
2022-08-25T14:51:55.695Z,33.30
2022-08-25T14:54:24.631Z,33.30
2022-08-25T14:56:55.720Z,33.30
2022-08-25T14:59:23.746Z,33.30
2022-08-25T15:01:54.604Z,33.20
2022-08-25T15:04:24.016Z,33.20
2022-08-25T15:06:55.146Z,33.20
2022-08-25T15:09:22.184Z,33.10
2022-08-25T15:11:54.731Z,33.10
2022-08-25T15:14:29.114Z,33.10
2022-08-25T15:17:02.616Z,33.10
2022-08-25T15:19:34.283Z,33.10
2022-08-25T15:22:02.691Z,33.00
2022-08-25T15:24:33.886Z,33.00
2022-08-25T15:27:07.375Z,32.90
2022-08-25T15:29:38.373Z,32.90
2022-08-25T15:32:08.698Z,32.90
2022-08-25T15:34:36.692Z,32.80
2022-08-25T15:37:08.997Z,32.80
2022-08-25T15:39:37.987Z,32.80
2022-08-25T15:42:07.191Z,32.80
2022-08-25T15:44:36.941Z,32.70
2022-08-25T15:47:07.688Z,32.70
2022-08-25T15:49:40.726Z,32.70
2022-08-25T15:52:09.753Z,32.70
2022-08-25T15:54:37.935Z,32.60
2022-08-25T15:57:10.538Z,32.60
2022-08-25T15:59:41.124Z,32.60
2022-08-25T16:02:15.258Z,32.60
2022-08-25T16:04:46.866Z,32.60
2022-08-25T16:07:14.923Z,32.60
2022-08-25T16:09:43.250Z,32.60
2022-08-25T16:12:12.040Z,32.60
2022-08-25T16:14:41.095Z,32.60
2022-08-25T16:17:10.833Z,32.60
2022-08-25T16:19:39.251Z,32.60
2022-08-25T16:22:08.997Z,32.50
2022-08-25T16:24:39.953Z,32.50
2022-08-25T16:27:12.135Z,32.50
2022-08-25T16:29:40.619Z,32.50
2022-08-25T16:32:10.732Z,32.50
2022-08-25T16:34:39.642Z,32.40
2022-08-25T16:37:09.187Z,32.50
2022-08-25T16:39:40.007Z,32.50
2022-08-25T16:42:11.834Z,32.40
2022-08-25T16:44:40.133Z,32.40
2022-08-25T16:47:10.005Z,32.40
2022-08-25T16:49:42.489Z,32.40
2022-08-25T16:52:25.297Z,32.40
2022-08-25T16:55:15.993Z,32.40
2022-08-25T16:57:47.941Z,32.40
2022-08-25T17:00:18.619Z,32.40
2022-08-25T17:02:51.552Z,32.30
2022-08-25T17:05:20.266Z,32.40
2022-08-25T17:08:08.778Z,32.40
2022-08-25T17:10:37.976Z,32.40
2022-08-25T17:13:06.087Z,32.40
2022-08-25T17:15:36.732Z,32.40
2022-08-25T17:18:06.406Z,32.40
2022-08-25T17:20:34.921Z,32.40
2022-08-25T17:23:03.244Z,32.30
2022-08-25T17:25:41.314Z,32.30
2022-08-25T17:28:12.267Z,32.30
2022-08-25T17:30:41.639Z,32.30
2022-08-25T17:33:11.146Z,32.30
2022-08-25T17:35:40.338Z,32.30
2022-08-25T17:38:08.711Z,32.30
2022-08-25T17:40:37.634Z,32.30
2022-08-25T17:43:09.112Z,32.30
2022-08-25T17:45:37.912Z,32.20
2022-08-25T17:48:07.842Z,32.20
2022-08-25T17:50:39.298Z,32.20
2022-08-25T17:53:07.571Z,32.10
2022-08-25T17:55:37.885Z,32.20
2022-08-25T17:58:06.088Z,32.10
2022-08-25T18:00:34.357Z,32.10
2022-08-25T18:03:04.167Z,32.10
2022-08-25T18:05:32.823Z,32.10
2022-08-25T18:08:03.459Z,32.00
2022-08-25T18:10:31.760Z,31.90
2022-08-25T18:13:02.085Z,32.00
2022-08-25T18:15:30.682Z,32.00
2022-08-25T18:17:58.914Z,31.90
2022-08-25T18:20:27.939Z,31.90
2022-08-25T18:22:56.951Z,31.80
2022-08-25T18:25:28.430Z,31.80
2022-08-25T18:27:57.335Z,31.20
2022-08-25T18:30:27.402Z,31.70
2022-08-25T18:32:55.603Z,31.70
2022-08-25T18:35:26.690Z,31.70
2022-08-25T18:38:12.172Z,31.70
2022-08-25T18:40:42.154Z,31.60
2022-08-25T18:43:11.831Z,31.50
2022-08-25T18:45:41.375Z,31.50
2022-08-25T18:48:09.419Z,31.50
2022-08-25T18:50:39.079Z,31.40
2022-08-25T18:53:07.459Z,31.40
2022-08-25T18:55:35.930Z,31.40
2022-08-25T18:58:06.106Z,31.40
2022-08-25T19:00:35.404Z,31.40
2022-08-25T19:03:03.888Z,31.50
2022-08-25T19:05:35.939Z,31.30
2022-08-25T19:08:05.688Z,31.50
2022-08-25T19:10:35.660Z,31.50
2022-08-25T19:13:07.826Z,31.40
2022-08-25T19:15:36.574Z,31.40
2022-08-25T19:18:09.730Z,31.30
2022-08-25T19:20:38.894Z,31.30
2022-08-25T19:23:08.876Z,31.30
2022-08-25T19:25:41.669Z,31.20
2022-08-25T19:28:12.375Z,31.20
2022-08-25T19:30:49.884Z,31.10
2022-08-25T19:33:31.411Z,31.10
2022-08-25T19:36:09.027Z,31.10
2022-08-25T19:38:37.575Z,31.00
2022-08-25T19:41:10.535Z,30.90
2022-08-25T19:43:55.447Z,30.90
2022-08-25T19:46:25.775Z,30.90
2022-08-25T19:49:07.205Z,30.80
2022-08-25T19:51:36.483Z,30.70
2022-08-25T19:54:05.751Z,30.70
2022-08-25T19:56:35.167Z,30.70
2022-08-25T19:59:06.345Z,30.60
2022-08-25T20:01:36.194Z,30.60
2022-08-25T20:04:04.641Z,30.60
2022-08-25T20:06:33.142Z,30.60
2022-08-25T20:09:01.910Z,30.50
2022-08-25T20:11:30.065Z,30.40
2022-08-25T20:14:00.439Z,30.40
2022-08-25T20:16:33.055Z,30.40
2022-08-25T20:19:01.350Z,30.40
2022-08-25T20:21:33.108Z,30.30
2022-08-25T20:24:23.198Z,30.30
2022-08-25T20:26:52.329Z,30.30
2022-08-25T20:29:20.336Z,30.20
2022-08-25T20:31:49.771Z,30.10
2022-08-25T20:34:18.235Z,30.00
2022-08-25T20:36:49.977Z,30.00
2022-08-25T20:39:20.196Z,30.00
2022-08-25T20:41:48.651Z,30.00
2022-08-25T20:44:16.765Z,30.00
2022-08-25T20:46:45.444Z,30.00
2022-08-25T20:49:15.502Z,30.00
2022-08-25T20:51:43.658Z,29.90
2022-08-25T20:54:14.259Z,29.90
2022-08-25T20:56:42.951Z,29.90
2022-08-25T20:59:11.742Z,29.90
2022-08-25T21:01:41.370Z,29.90
2022-08-25T21:04:10.757Z,29.90
2022-08-25T21:06:44.000Z,29.80
2022-08-25T21:09:15.948Z,29.80
2022-08-25T21:11:46.641Z,29.70
2022-08-25T21:14:15.947Z,29.60
2022-08-25T21:19:16.024Z,29.60
2022-08-25T21:21:45.443Z,29.60
2022-08-25T21:24:13.775Z,29.60
2022-08-25T21:26:49.016Z,29.60
2022-08-25T21:29:17.544Z,29.70
2022-08-25T21:31:46.507Z,29.70
2022-08-25T21:34:17.168Z,29.70
2022-08-25T21:36:48.115Z,29.70
2022-08-25T21:39:16.283Z,29.70
2022-08-25T21:41:45.622Z,29.60
2022-08-25T21:44:15.389Z,29.80
2022-08-25T21:46:53.863Z,29.80
2022-08-25T21:49:23.228Z,29.80
2022-08-25T21:52:00.297Z,29.80
2022-08-25T21:54:29.191Z,29.80
2022-08-25T21:56:59.408Z,29.80
2022-08-25T21:59:28.348Z,29.80
2022-08-25T22:01:57.483Z,29.80
2022-08-25T22:04:26.023Z,29.80
2022-08-25T22:06:55.832Z,29.80
2022-08-25T22:09:26.417Z,29.80
2022-08-25T22:11:56.668Z,29.80
2022-08-25T22:14:25.983Z,29.80
2022-08-25T22:16:54.798Z,29.80
2022-08-25T22:19:23.231Z,29.80
2022-08-25T22:21:53.257Z,29.80
2022-08-25T22:24:28.132Z,29.70
2022-08-25T22:26:56.817Z,29.80
2022-08-25T22:29:25.944Z,29.80
2022-08-25T22:31:59.313Z,29.70
2022-08-25T22:34:32.000Z,29.80
2022-08-25T22:37:03.614Z,29.70
2022-08-25T22:39:34.470Z,29.70
2022-08-25T22:42:02.886Z,29.70
2022-08-25T22:44:30.954Z,29.60
2022-08-25T22:46:59.288Z,29.50
2022-08-25T22:49:29.279Z,29.50
2022-08-25T22:51:58.219Z,29.60
2022-08-25T22:54:26.403Z,29.60
2022-08-25T22:56:56.071Z,29.60
2022-08-25T22:59:24.777Z,29.60
2022-08-25T23:01:54.626Z,29.60
2022-08-25T23:04:22.929Z,29.50
2022-08-25T23:06:53.187Z,29.50
2022-08-25T23:09:21.968Z,29.60
2022-08-25T23:11:51.262Z,29.50
2022-08-25T23:14:20.839Z,29.50
2022-08-25T23:16:49.966Z,29.50
2022-08-25T23:19:18.603Z,29.50
2022-08-25T23:22:05.991Z,29.50
2022-08-25T23:24:34.006Z,29.50
2022-08-25T23:27:03.819Z,29.50
2022-08-25T23:29:34.302Z,29.50
2022-08-25T23:32:02.467Z,29.40
2022-08-25T23:34:30.682Z,29.40
2022-08-25T23:37:01.822Z,29.40
2022-08-25T23:39:29.855Z,29.40
2022-08-25T23:41:58.994Z,29.40
2022-08-25T23:44:28.031Z,29.50
2022-08-25T23:46:57.948Z,29.50
2022-08-25T23:49:26.150Z,29.50
2022-08-25T23:51:56.130Z,29.50
2022-08-25T23:54:30.836Z,29.40
2022-08-25T23:56:59.800Z,29.50
2022-08-25T23:59:27.932Z,29.50
